sensor_id;sensor_type;location;lat;lon;timestamp;P1;durP1;ratioP1;P2;durP2;ratioP2
46777;SDS011;32536;47.128;8.746;2023-04-06T00:00:36;3.63;;;2.38;;
46777;SDS011;32536;47.128;8.746;2023-04-06T00:03:03;3.13;;;2.03;;
46777;SDS011;32536;47.128;8.746;2023-04-06T00:05:30;4.50;;;3.63;;
46777;SDS011;32536;47.128;8.746;2023-04-06T00:07:57;4.10;;;2.60;;
46777;SDS011;32536;47.128;8.746;2023-04-06T00:10:24;3.50;;;2.15;;
46777;SDS011;32536;47.128;8.746;2023-04-06T00:12:52;3.53;;;1.92;;
46777;SDS011;32536;47.128;8.746;2023-04-06T00:15:20;4.57;;;2.88;;
46777;SDS011;32536;47.128;8.746;2023-04-06T00:17:47;2.63;;;1.67;;
46777;SDS011;32536;47.128;8.746;2023-04-06T00:20:14;2.83;;;1.75;;
46777;SDS011;32536;47.128;8.746;2023-04-06T00:22:41;2.35;;;1.38;;
46777;SDS011;32536;47.128;8.746;2023-04-06T00:28:27;4.07;;;2.35;;
46777;SDS011;32536;47.128;8.746;2023-04-06T00:30:55;5.55;;;2.58;;
46777;SDS011;32536;47.128;8.746;2023-04-06T00:33:22;3.22;;;1.77;;
46777;SDS011;32536;47.128;8.746;2023-04-06T00:35:49;4.63;;;2.83;;
46777;SDS011;32536;47.128;8.746;2023-04-06T00:38:16;3.85;;;2.00;;
46777;SDS011;32536;47.128;8.746;2023-04-06T00:40:44;3.97;;;2.60;;
46777;SDS011;32536;47.128;8.746;2023-04-06T00:43:11;3.20;;;1.75;;
46777;SDS011;32536;47.128;8.746;2023-04-06T00:45:38;3.42;;;2.50;;
46777;SDS011;32536;47.128;8.746;2023-04-06T00:48:06;3.50;;;2.20;;
46777;SDS011;32536;47.128;8.746;2023-04-06T00:50:34;3.78;;;2.05;;
46777;SDS011;32536;47.128;8.746;2023-04-06T00:53:01;3.30;;;2.10;;
46777;SDS011;32536;47.128;8.746;2023-04-06T00:55:28;3.63;;;1.85;;
46777;SDS011;32536;47.128;8.746;2023-04-06T00:57:56;3.25;;;2.75;;
46777;SDS011;32536;47.128;8.746;2023-04-06T01:00:28;3.80;;;2.42;;
46777;SDS011;32536;47.128;8.746;2023-04-06T01:02:56;2.63;;;1.60;;
46777;SDS011;32536;47.128;8.746;2023-04-06T01:05:22;2.78;;;1.55;;
46777;SDS011;32536;47.128;8.746;2023-04-06T01:07:49;2.00;;;1.35;;
46777;SDS011;32536;47.128;8.746;2023-04-06T01:10:22;2.08;;;1.48;;
46777;SDS011;32536;47.128;8.746;2023-04-06T01:12:53;2.47;;;1.75;;
46777;SDS011;32536;47.128;8.746;2023-04-06T01:15:20;3.55;;;2.33;;
46777;SDS011;32536;47.128;8.746;2023-04-06T01:17:48;3.58;;;2.47;;
46777;SDS011;32536;47.128;8.746;2023-04-06T01:20:15;2.58;;;1.58;;
46777;SDS011;32536;47.128;8.746;2023-04-06T01:22:42;2.75;;;1.75;;
46777;SDS011;32536;47.128;8.746;2023-04-06T01:25:09;2.83;;;1.73;;
46777;SDS011;32536;47.128;8.746;2023-04-06T01:27:36;2.85;;;1.75;;
46777;SDS011;32536;47.128;8.746;2023-04-06T01:30:03;2.75;;;1.83;;
46777;SDS011;32536;47.128;8.746;2023-04-06T01:32:30;3.72;;;2.53;;
46777;SDS011;32536;47.128;8.746;2023-04-06T01:34:57;4.18;;;3.08;;
46777;SDS011;32536;47.128;8.746;2023-04-06T01:37:23;3.63;;;1.60;;
46777;SDS011;32536;47.128;8.746;2023-04-06T01:39:50;3.97;;;2.92;;
46777;SDS011;32536;47.128;8.746;2023-04-06T01:42:17;4.95;;;2.72;;
46777;SDS011;32536;47.128;8.746;2023-04-06T01:44:44;3.08;;;2.00;;
46777;SDS011;32536;47.128;8.746;2023-04-06T01:47:11;2.72;;;1.65;;
46777;SDS011;32536;47.128;8.746;2023-04-06T01:49:37;4.43;;;3.03;;
46777;SDS011;32536;47.128;8.746;2023-04-06T01:52:04;2.53;;;1.45;;
46777;SDS011;32536;47.128;8.746;2023-04-06T01:54:31;2.35;;;1.38;;
46777;SDS011;32536;47.128;8.746;2023-04-06T01:56:58;2.97;;;1.48;;
46777;SDS011;32536;47.128;8.746;2023-04-06T01:59:25;3.13;;;2.03;;
46777;SDS011;32536;47.128;8.746;2023-04-06T02:01:52;2.25;;;1.95;;
46777;SDS011;32536;47.128;8.746;2023-04-06T02:04:18;3.40;;;1.98;;
46777;SDS011;32536;47.128;8.746;2023-04-06T02:06:45;3.72;;;2.17;;
46777;SDS011;32536;47.128;8.746;2023-04-06T02:09:12;3.10;;;1.77;;
46777;SDS011;32536;47.128;8.746;2023-04-06T02:11:39;4.05;;;2.63;;
46777;SDS011;32536;47.128;8.746;2023-04-06T02:14:06;4.30;;;2.15;;
46777;SDS011;32536;47.128;8.746;2023-04-06T02:16:32;3.03;;;2.53;;
46777;SDS011;32536;47.128;8.746;2023-04-06T02:18:59;3.55;;;2.35;;
46777;SDS011;32536;47.128;8.746;2023-04-06T02:21:26;3.33;;;2.15;;
46777;SDS011;32536;47.128;8.746;2023-04-06T02:23:53;3.17;;;1.77;;
46777;SDS011;32536;47.128;8.746;2023-04-06T02:26:19;3.70;;;2.55;;
46777;SDS011;32536;47.128;8.746;2023-04-06T02:28:46;4.30;;;2.30;;
46777;SDS011;32536;47.128;8.746;2023-04-06T02:31:13;3.13;;;1.88;;
46777;SDS011;32536;47.128;8.746;2023-04-06T02:33:41;3.47;;;1.95;;
46777;SDS011;32536;47.128;8.746;2023-04-06T02:36:07;3.63;;;2.20;;
46777;SDS011;32536;47.128;8.746;2023-04-06T02:38:34;3.03;;;2.30;;
46777;SDS011;32536;47.128;8.746;2023-04-06T02:41:01;4.47;;;3.25;;
46777;SDS011;32536;47.128;8.746;2023-04-06T02:43:28;3.20;;;1.95;;
46777;SDS011;32536;47.128;8.746;2023-04-06T02:45:55;3.47;;;1.92;;
46777;SDS011;32536;47.128;8.746;2023-04-06T02:48:21;3.42;;;1.95;;
46777;SDS011;32536;47.128;8.746;2023-04-06T02:50:48;4.55;;;2.80;;
46777;SDS011;32536;47.128;8.746;2023-04-06T02:53:15;3.42;;;1.95;;
46777;SDS011;32536;47.128;8.746;2023-04-06T02:55:42;2.78;;;1.73;;
46777;SDS011;32536;47.128;8.746;2023-04-06T02:58:08;2.30;;;1.38;;
46777;SDS011;32536;47.128;8.746;2023-04-06T03:00:35;4.60;;;3.00;;
46777;SDS011;32536;47.128;8.746;2023-04-06T03:03:03;5.05;;;2.47;;
46777;SDS011;32536;47.128;8.746;2023-04-06T03:05:30;7.25;;;3.28;;
46777;SDS011;32536;47.128;8.746;2023-04-06T03:07:56;6.35;;;2.65;;
46777;SDS011;32536;47.128;8.746;2023-04-06T03:10:23;5.20;;;3.65;;
46777;SDS011;32536;47.128;8.746;2023-04-06T03:12:50;5.38;;;3.70;;
46777;SDS011;32536;47.128;8.746;2023-04-06T03:15:16;4.50;;;3.35;;
46777;SDS011;32536;47.128;8.746;2023-04-06T03:17:43;2.85;;;1.77;;
46777;SDS011;32536;47.128;8.746;2023-04-06T03:20:10;4.53;;;3.28;;
46777;SDS011;32536;47.128;8.746;2023-04-06T03:22:37;4.15;;;2.35;;
46777;SDS011;32536;47.128;8.746;2023-04-06T03:25:04;3.13;;;1.77;;
46777;SDS011;32536;47.128;8.746;2023-04-06T03:27:31;3.78;;;2.00;;
46777;SDS011;32536;47.128;8.746;2023-04-06T03:29:58;3.28;;;1.83;;
46777;SDS011;32536;47.128;8.746;2023-04-06T03:32:25;3.28;;;2.03;;
46777;SDS011;32536;47.128;8.746;2023-04-06T03:34:51;4.05;;;2.35;;
46777;SDS011;32536;47.128;8.746;2023-04-06T03:37:18;3.38;;;2.55;;
46777;SDS011;32536;47.128;8.746;2023-04-06T03:39:45;3.75;;;2.10;;
46777;SDS011;32536;47.128;8.746;2023-04-06T03:42:11;3.58;;;2.65;;
46777;SDS011;32536;47.128;8.746;2023-04-06T03:44:38;4.22;;;3.40;;
46777;SDS011;32536;47.128;8.746;2023-04-06T03:47:05;4.60;;;2.97;;
46777;SDS011;32536;47.128;8.746;2023-04-06T03:49:31;3.50;;;2.05;;
46777;SDS011;32536;47.128;8.746;2023-04-06T03:51:58;4.90;;;2.85;;
46777;SDS011;32536;47.128;8.746;2023-04-06T03:54:26;3.47;;;2.88;;
46777;SDS011;32536;47.128;8.746;2023-04-06T03:56:52;2.95;;;2.05;;
46777;SDS011;32536;47.128;8.746;2023-04-06T03:59:19;5.57;;;3.20;;
46777;SDS011;32536;47.128;8.746;2023-04-06T04:01:46;4.40;;;3.53;;
46777;SDS011;32536;47.128;8.746;2023-04-06T04:04:12;4.80;;;3.40;;
46777;SDS011;32536;47.128;8.746;2023-04-06T04:06:39;5.20;;;3.17;;
46777;SDS011;32536;47.128;8.746;2023-04-06T04:09:06;3.72;;;2.58;;
46777;SDS011;32536;47.128;8.746;2023-04-06T04:11:32;3.50;;;1.95;;
46777;SDS011;32536;47.128;8.746;2023-04-06T04:13:59;3.35;;;2.00;;
46777;SDS011;32536;47.128;8.746;2023-04-06T04:16:26;4.88;;;2.90;;
46777;SDS011;32536;47.128;8.746;2023-04-06T04:18:53;4.45;;;2.55;;
46777;SDS011;32536;47.128;8.746;2023-04-06T04:21:20;3.20;;;2.10;;
46777;SDS011;32536;47.128;8.746;2023-04-06T04:23:46;3.42;;;2.35;;
46777;SDS011;32536;47.128;8.746;2023-04-06T04:26:13;4.32;;;1.95;;
46777;SDS011;32536;47.128;8.746;2023-04-06T04:28:40;2.53;;;1.55;;
46777;SDS011;32536;47.128;8.746;2023-04-06T04:31:06;4.80;;;2.05;;
46777;SDS011;32536;47.128;8.746;2023-04-06T04:33:33;3.03;;;1.70;;
46777;SDS011;32536;47.128;8.746;2023-04-06T04:36:00;4.60;;;2.95;;
46777;SDS011;32536;47.128;8.746;2023-04-06T04:38:27;3.45;;;1.90;;
46777;SDS011;32536;47.128;8.746;2023-04-06T04:40:53;4.05;;;2.97;;
46777;SDS011;32536;47.128;8.746;2023-04-06T04:43:20;4.40;;;2.50;;
46777;SDS011;32536;47.128;8.746;2023-04-06T04:45:47;4.72;;;2.58;;
46777;SDS011;32536;47.128;8.746;2023-04-06T04:48:13;4.38;;;2.47;;
46777;SDS011;32536;47.128;8.746;2023-04-06T04:50:40;3.35;;;2.38;;
46777;SDS011;32536;47.128;8.746;2023-04-06T04:53:07;4.20;;;2.70;;
46777;SDS011;32536;47.128;8.746;2023-04-06T04:55:34;3.33;;;1.90;;
46777;SDS011;32536;47.128;8.746;2023-04-06T04:58:00;4.55;;;2.35;;
46777;SDS011;32536;47.128;8.746;2023-04-06T05:00:43;2.88;;;1.75;;
46777;SDS011;32536;47.128;8.746;2023-04-06T05:03:11;2.95;;;2.15;;
46777;SDS011;32536;47.128;8.746;2023-04-06T05:05:48;4.32;;;2.92;;
46777;SDS011;32536;47.128;8.746;2023-04-06T05:08:15;3.20;;;1.80;;
46777;SDS011;32536;47.128;8.746;2023-04-06T05:10:42;4.00;;;3.13;;
46777;SDS011;32536;47.128;8.746;2023-04-06T05:13:10;5.45;;;3.28;;
46777;SDS011;32536;47.128;8.746;2023-04-06T05:15:37;4.78;;;2.45;;
46777;SDS011;32536;47.128;8.746;2023-04-06T05:18:05;4.93;;;2.40;;
46777;SDS011;32536;47.128;8.746;2023-04-06T05:20:35;4.32;;;2.33;;
46777;SDS011;32536;47.128;8.746;2023-04-06T05:23:03;4.85;;;2.90;;
46777;SDS011;32536;47.128;8.746;2023-04-06T05:25:30;4.47;;;3.17;;
46777;SDS011;32536;47.128;8.746;2023-04-06T05:27:57;2.78;;;1.83;;
46777;SDS011;32536;47.128;8.746;2023-04-06T05:30:24;2.83;;;1.73;;
46777;SDS011;32536;47.128;8.746;2023-04-06T05:32:51;3.78;;;2.25;;
46777;SDS011;32536;47.128;8.746;2023-04-06T05:35:17;4.07;;;2.13;;
46777;SDS011;32536;47.128;8.746;2023-04-06T05:37:45;3.60;;;2.13;;
46777;SDS011;32536;47.128;8.746;2023-04-06T05:40:12;5.15;;;2.53;;
46777;SDS011;32536;47.128;8.746;2023-04-06T05:42:39;6.40;;;2.60;;
46777;SDS011;32536;47.128;8.746;2023-04-06T05:45:09;4.45;;;2.55;;
46777;SDS011;32536;47.128;8.746;2023-04-06T05:47:42;4.88;;;3.40;;
46777;SDS011;32536;47.128;8.746;2023-04-06T05:50:10;5.93;;;3.30;;
46777;SDS011;32536;47.128;8.746;2023-04-06T05:52:39;8.82;;;3.65;;
46777;SDS011;32536;47.128;8.746;2023-04-06T05:55:08;5.13;;;2.67;;
46777;SDS011;32536;47.128;8.746;2023-04-06T05:57:36;4.80;;;3.67;;
46777;SDS011;32536;47.128;8.746;2023-04-06T06:00:03;4.35;;;1.60;;
46777;SDS011;32536;47.128;8.746;2023-04-06T06:02:52;3.92;;;3.30;;
46777;SDS011;32536;47.128;8.746;2023-04-06T06:05:19;3.15;;;2.15;;
46777;SDS011;32536;47.128;8.746;2023-04-06T06:07:45;4.50;;;2.90;;
46777;SDS011;32536;47.128;8.746;2023-04-06T06:10:12;3.22;;;1.98;;
46777;SDS011;32536;47.128;8.746;2023-04-06T06:12:39;5.72;;;3.35;;
46777;SDS011;32536;47.128;8.746;2023-04-06T06:15:06;6.03;;;3.10;;
46777;SDS011;32536;47.128;8.746;2023-04-06T06:17:33;5.63;;;4.03;;
46777;SDS011;32536;47.128;8.746;2023-04-06T06:20:00;6.72;;;4.00;;
46777;SDS011;32536;47.128;8.746;2023-04-06T06:22:27;6.90;;;3.92;;
46777;SDS011;32536;47.128;8.746;2023-04-06T06:24:53;5.60;;;3.15;;
46777;SDS011;32536;47.128;8.746;2023-04-06T06:27:20;8.20;;;4.63;;
46777;SDS011;32536;47.128;8.746;2023-04-06T06:29:47;5.72;;;3.92;;
46777;SDS011;32536;47.128;8.746;2023-04-06T06:32:14;3.88;;;2.42;;
46777;SDS011;32536;47.128;8.746;2023-04-06T06:34:41;6.32;;;3.25;;
46777;SDS011;32536;47.128;8.746;2023-04-06T06:37:07;5.80;;;3.33;;
46777;SDS011;32536;47.128;8.746;2023-04-06T06:39:34;6.38;;;3.83;;
46777;SDS011;32536;47.128;8.746;2023-04-06T06:42:01;6.28;;;4.18;;
46777;SDS011;32536;47.128;8.746;2023-04-06T06:44:28;6.13;;;2.97;;
46777;SDS011;32536;47.128;8.746;2023-04-06T06:46:54;5.97;;;2.88;;
46777;SDS011;32536;47.128;8.746;2023-04-06T06:49:21;6.05;;;2.97;;
46777;SDS011;32536;47.128;8.746;2023-04-06T06:51:48;7.13;;;3.00;;
46777;SDS011;32536;47.128;8.746;2023-04-06T06:54:14;6.40;;;3.33;;
46777;SDS011;32536;47.128;8.746;2023-04-06T06:56:41;6.95;;;3.50;;
46777;SDS011;32536;47.128;8.746;2023-04-06T06:59:08;5.72;;;3.17;;
46777;SDS011;32536;47.128;8.746;2023-04-06T07:01:35;5.50;;;2.65;;
46777;SDS011;32536;47.128;8.746;2023-04-06T07:04:02;5.32;;;3.05;;
46777;SDS011;32536;47.128;8.746;2023-04-06T07:06:29;4.22;;;2.63;;
46777;SDS011;32536;47.128;8.746;2023-04-06T07:08:56;2.88;;;1.65;;
46777;SDS011;32536;47.128;8.746;2023-04-06T07:11:23;4.70;;;1.88;;
46777;SDS011;32536;47.128;8.746;2023-04-06T07:13:50;3.05;;;1.67;;
46777;SDS011;32536;47.128;8.746;2023-04-06T07:16:17;2.47;;;1.70;;
46777;SDS011;32536;47.128;8.746;2023-04-06T07:18:43;2.80;;;1.60;;
46777;SDS011;32536;47.128;8.746;2023-04-06T07:21:10;3.00;;;2.33;;
46777;SDS011;32536;47.128;8.746;2023-04-06T07:23:37;1.98;;;1.38;;
46777;SDS011;32536;47.128;8.746;2023-04-06T07:26:04;2.22;;;1.42;;
46777;SDS011;32536;47.128;8.746;2023-04-06T07:28:31;4.10;;;2.22;;
46777;SDS011;32536;47.128;8.746;2023-04-06T07:30:57;3.28;;;2.67;;
46777;SDS011;32536;47.128;8.746;2023-04-06T07:33:24;2.10;;;1.33;;
46777;SDS011;32536;47.128;8.746;2023-04-06T07:35:55;2.55;;;1.58;;
46777;SDS011;32536;47.128;8.746;2023-04-06T07:38:24;6.57;;;2.90;;
46777;SDS011;32536;47.128;8.746;2023-04-06T07:40:50;3.00;;;2.25;;
46777;SDS011;32536;47.128;8.746;2023-04-06T07:43:17;2.85;;;1.73;;
46777;SDS011;32536;47.128;8.746;2023-04-06T07:45:44;2.65;;;1.50;;
46777;SDS011;32536;47.128;8.746;2023-04-06T07:48:11;4.13;;;2.63;;
46777;SDS011;32536;47.128;8.746;2023-04-06T07:50:37;2.63;;;1.63;;
46777;SDS011;32536;47.128;8.746;2023-04-06T07:53:04;2.65;;;1.60;;
46777;SDS011;32536;47.128;8.746;2023-04-06T07:55:31;2.28;;;1.30;;
46777;SDS011;32536;47.128;8.746;2023-04-06T07:57:58;2.83;;;1.60;;
46777;SDS011;32536;47.128;8.746;2023-04-06T08:03:18;4.15;;;2.15;;
46777;SDS011;32536;47.128;8.746;2023-04-06T08:05:46;3.42;;;1.48;;
46777;SDS011;32536;47.128;8.746;2023-04-06T08:08:13;2.40;;;1.33;;
46777;SDS011;32536;47.128;8.746;2023-04-06T08:10:41;4.15;;;2.35;;
46777;SDS011;32536;47.128;8.746;2023-04-06T08:13:08;4.50;;;2.88;;
46777;SDS011;32536;47.128;8.746;2023-04-06T08:15:34;3.15;;;1.85;;
46777;SDS011;32536;47.128;8.746;2023-04-06T08:18:01;5.57;;;2.72;;
46777;SDS011;32536;47.128;8.746;2023-04-06T08:20:28;4.93;;;3.17;;
46777;SDS011;32536;47.128;8.746;2023-04-06T08:22:55;5.35;;;3.47;;
46777;SDS011;32536;47.128;8.746;2023-04-06T08:25:21;6.30;;;3.88;;
46777;SDS011;32536;47.128;8.746;2023-04-06T08:27:48;6.65;;;4.43;;
46777;SDS011;32536;47.128;8.746;2023-04-06T08:30:15;5.50;;;3.97;;
46777;SDS011;32536;47.128;8.746;2023-04-06T08:32:42;6.05;;;3.95;;
46777;SDS011;32536;47.128;8.746;2023-04-06T08:35:08;4.82;;;3.58;;
46777;SDS011;32536;47.128;8.746;2023-04-06T08:37:35;4.40;;;2.75;;
46777;SDS011;32536;47.128;8.746;2023-04-06T08:40:02;6.10;;;4.05;;
46777;SDS011;32536;47.128;8.746;2023-04-06T08:42:31;4.68;;;2.95;;
46777;SDS011;32536;47.128;8.746;2023-04-06T08:44:59;4.65;;;3.38;;
46777;SDS011;32536;47.128;8.746;2023-04-06T08:47:26;4.82;;;3.38;;
46777;SDS011;32536;47.128;8.746;2023-04-06T08:49:54;4.70;;;2.63;;
46777;SDS011;32536;47.128;8.746;2023-04-06T08:52:21;5.28;;;3.38;;
46777;SDS011;32536;47.128;8.746;2023-04-06T08:54:50;6.32;;;3.80;;
46777;SDS011;32536;47.128;8.746;2023-04-06T08:57:16;6.13;;;3.72;;
46777;SDS011;32536;47.128;8.746;2023-04-06T08:59:45;5.13;;;3.35;;
46777;SDS011;32536;47.128;8.746;2023-04-06T09:02:15;6.50;;;4.32;;
46777;SDS011;32536;47.128;8.746;2023-04-06T09:04:48;4.72;;;3.35;;
46777;SDS011;32536;47.128;8.746;2023-04-06T09:07:19;5.35;;;3.17;;
46777;SDS011;32536;47.128;8.746;2023-04-06T09:09:46;5.18;;;3.38;;
46777;SDS011;32536;47.128;8.746;2023-04-06T09:12:26;6.85;;;3.92;;
46777;SDS011;32536;47.128;8.746;2023-04-06T09:14:55;5.70;;;3.33;;
46777;SDS011;32536;47.128;8.746;2023-04-06T09:17:24;4.22;;;2.92;;
46777;SDS011;32536;47.128;8.746;2023-04-06T09:19:58;5.72;;;3.60;;
46777;SDS011;32536;47.128;8.746;2023-04-06T09:22:34;4.07;;;2.63;;
46777;SDS011;32536;47.128;8.746;2023-04-06T09:25:05;5.50;;;2.38;;
46777;SDS011;32536;47.128;8.746;2023-04-06T09:27:34;5.10;;;3.53;;
46777;SDS011;32536;47.128;8.746;2023-04-06T09:30:07;4.25;;;1.98;;
46777;SDS011;32536;47.128;8.746;2023-04-06T09:35:19;7.10;;;2.75;;
46777;SDS011;32536;47.128;8.746;2023-04-06T09:37:47;6.32;;;4.32;;
46777;SDS011;32536;47.128;8.746;2023-04-06T09:40:15;8.68;;;6.05;;
46777;SDS011;32536;47.128;8.746;2023-04-06T09:42:46;5.47;;;3.78;;
46777;SDS011;32536;47.128;8.746;2023-04-06T09:45:18;7.88;;;4.68;;
46777;SDS011;32536;47.128;8.746;2023-04-06T09:47:46;5.82;;;3.53;;
46777;SDS011;32536;47.128;8.746;2023-04-06T09:50:13;6.78;;;4.07;;
46777;SDS011;32536;47.128;8.746;2023-04-06T09:55:34;7.22;;;4.57;;
46777;SDS011;32536;47.128;8.746;2023-04-06T10:03:33;7.53;;;4.35;;
46777;SDS011;32536;47.128;8.746;2023-04-06T10:06:37;7.07;;;4.45;;
46777;SDS011;32536;47.128;8.746;2023-04-06T10:09:05;6.50;;;3.97;;
46777;SDS011;32536;47.128;8.746;2023-04-06T10:11:35;6.75;;;4.10;;
46777;SDS011;32536;47.128;8.746;2023-04-06T10:14:02;6.53;;;4.13;;
46777;SDS011;32536;47.128;8.746;2023-04-06T10:16:28;6.20;;;3.20;;
46777;SDS011;32536;47.128;8.746;2023-04-06T10:18:57;6.78;;;4.07;;
46777;SDS011;32536;47.128;8.746;2023-04-06T10:21:32;6.60;;;3.58;;
46777;SDS011;32536;47.128;8.746;2023-04-06T10:24:02;7.40;;;4.82;;
46777;SDS011;32536;47.128;8.746;2023-04-06T10:26:39;8.27;;;4.80;;
46777;SDS011;32536;47.128;8.746;2023-04-06T10:29:06;7.55;;;3.45;;
46777;SDS011;32536;47.128;8.746;2023-04-06T10:31:32;6.57;;;3.88;;
46777;SDS011;32536;47.128;8.746;2023-04-06T10:34:04;8.80;;;4.93;;
46777;SDS011;32536;47.128;8.746;2023-04-06T10:36:32;8.10;;;4.95;;
46777;SDS011;32536;47.128;8.746;2023-04-06T10:41:51;6.55;;;4.00;;
46777;SDS011;32536;47.128;8.746;2023-04-06T10:44:22;6.10;;;4.13;;
46777;SDS011;32536;47.128;8.746;2023-04-06T10:46:56;6.60;;;3.35;;
46777;SDS011;32536;47.128;8.746;2023-04-06T10:51:55;7.50;;;4.50;;
46777;SDS011;32536;47.128;8.746;2023-04-06T10:54:24;5.22;;;2.90;;
46777;SDS011;32536;47.128;8.746;2023-04-06T10:56:52;4.53;;;2.83;;
46777;SDS011;32536;47.128;8.746;2023-04-06T10:59:19;6.18;;;2.88;;
46777;SDS011;32536;47.128;8.746;2023-04-06T11:01:47;5.40;;;3.25;;
46777;SDS011;32536;47.128;8.746;2023-04-06T11:04:17;8.20;;;4.50;;
46777;SDS011;32536;47.128;8.746;2023-04-06T11:06:49;5.72;;;2.95;;
46777;SDS011;32536;47.128;8.746;2023-04-06T11:09:29;5.55;;;3.53;;
46777;SDS011;32536;47.128;8.746;2023-04-06T11:12:00;4.55;;;2.88;;
46777;SDS011;32536;47.128;8.746;2023-04-06T11:14:27;4.50;;;2.50;;
46777;SDS011;32536;47.128;8.746;2023-04-06T11:16:54;6.55;;;4.03;;
46777;SDS011;32536;47.128;8.746;2023-04-06T11:19:20;7.78;;;4.28;;
46777;SDS011;32536;47.128;8.746;2023-04-06T11:21:47;7.75;;;4.18;;
46777;SDS011;32536;47.128;8.746;2023-04-06T11:26:50;7.18;;;4.13;;
46777;SDS011;32536;47.128;8.746;2023-04-06T11:29:17;5.82;;;3.45;;
46777;SDS011;32536;47.128;8.746;2023-04-06T11:32:06;6.72;;;4.22;;
46777;SDS011;32536;47.128;8.746;2023-04-06T11:34:36;5.53;;;2.67;;
46777;SDS011;32536;47.128;8.746;2023-04-06T11:37:10;4.88;;;2.90;;
46777;SDS011;32536;47.128;8.746;2023-04-06T11:42:21;6.95;;;4.40;;
46777;SDS011;32536;47.128;8.746;2023-04-06T11:44:55;4.70;;;2.67;;
46777;SDS011;32536;47.128;8.746;2023-04-06T11:47:27;5.45;;;2.88;;
46777;SDS011;32536;47.128;8.746;2023-04-06T11:50:05;6.95;;;4.03;;
46777;SDS011;32536;47.128;8.746;2023-04-06T11:52:36;8.05;;;4.47;;
46777;SDS011;32536;47.128;8.746;2023-04-06T11:55:12;7.15;;;4.35;;
46777;SDS011;32536;47.128;8.746;2023-04-06T11:57:41;6.47;;;4.00;;
46777;SDS011;32536;47.128;8.746;2023-04-06T12:00:08;4.70;;;2.75;;
46777;SDS011;32536;47.128;8.746;2023-04-06T12:02:37;5.25;;;2.20;;
46777;SDS011;32536;47.128;8.746;2023-04-06T12:05:04;5.45;;;3.30;;
46777;SDS011;32536;47.128;8.746;2023-04-06T12:07:33;4.18;;;2.63;;
46777;SDS011;32536;47.128;8.746;2023-04-06T12:10:01;4.15;;;2.30;;
46777;SDS011;32536;47.128;8.746;2023-04-06T12:12:29;4.05;;;1.95;;
46777;SDS011;32536;47.128;8.746;2023-04-06T12:14:56;7.72;;;3.63;;
46777;SDS011;32536;47.128;8.746;2023-04-06T12:17:24;4.15;;;2.10;;
46777;SDS011;32536;47.128;8.746;2023-04-06T12:19:50;5.47;;;2.85;;
46777;SDS011;32536;47.128;8.746;2023-04-06T12:22:17;8.50;;;4.70;;
46777;SDS011;32536;47.128;8.746;2023-04-06T12:24:44;7.72;;;4.47;;
46777;SDS011;32536;47.128;8.746;2023-04-06T12:27:11;8.15;;;4.68;;
46777;SDS011;32536;47.128;8.746;2023-04-06T12:29:38;6.88;;;3.65;;
46777;SDS011;32536;47.128;8.746;2023-04-06T12:32:05;7.07;;;3.60;;
46777;SDS011;32536;47.128;8.746;2023-04-06T12:34:32;10.30;;;5.68;;
46777;SDS011;32536;47.128;8.746;2023-04-06T12:36:59;8.48;;;5.55;;
46777;SDS011;32536;47.128;8.746;2023-04-06T12:39:27;8.45;;;4.78;;
46777;SDS011;32536;47.128;8.746;2023-04-06T12:41:54;7.43;;;4.78;;
46777;SDS011;32536;47.128;8.746;2023-04-06T12:44:21;7.47;;;4.38;;
46777;SDS011;32536;47.128;8.746;2023-04-06T12:46:48;5.70;;;3.10;;
46777;SDS011;32536;47.128;8.746;2023-04-06T12:49:16;4.82;;;2.83;;
46777;SDS011;32536;47.128;8.746;2023-04-06T12:51:44;5.20;;;2.95;;
46777;SDS011;32536;47.128;8.746;2023-04-06T12:54:11;4.63;;;2.78;;
46777;SDS011;32536;47.128;8.746;2023-04-06T12:56:38;5.43;;;3.20;;
46777;SDS011;32536;47.128;8.746;2023-04-06T12:59:05;7.65;;;4.45;;
46777;SDS011;32536;47.128;8.746;2023-04-06T13:01:32;8.45;;;5.32;;
46777;SDS011;32536;47.128;8.746;2023-04-06T13:03:59;9.52;;;6.18;;
46777;SDS011;32536;47.128;8.746;2023-04-06T13:06:26;7.95;;;4.72;;
46777;SDS011;32536;47.128;8.746;2023-04-06T13:08:53;6.55;;;3.92;;
46777;SDS011;32536;47.128;8.746;2023-04-06T13:11:20;10.52;;;5.80;;
46777;SDS011;32536;47.128;8.746;2023-04-06T13:13:49;7.18;;;4.95;;
46777;SDS011;32536;47.128;8.746;2023-04-06T13:16:16;8.15;;;4.82;;
46777;SDS011;32536;47.128;8.746;2023-04-06T13:18:43;5.72;;;3.95;;
46777;SDS011;32536;47.128;8.746;2023-04-06T13:21:12;8.07;;;4.70;;
46777;SDS011;32536;47.128;8.746;2023-04-06T13:23:41;8.23;;;4.78;;
46777;SDS011;32536;47.128;8.746;2023-04-06T13:26:09;7.65;;;4.68;;
46777;SDS011;32536;47.128;8.746;2023-04-06T13:28:36;8.23;;;4.85;;
46777;SDS011;32536;47.128;8.746;2023-04-06T13:31:04;8.25;;;4.85;;
46777;SDS011;32536;47.128;8.746;2023-04-06T13:33:32;5.20;;;3.17;;
46777;SDS011;32536;47.128;8.746;2023-04-06T13:35:59;9.60;;;6.03;;
46777;SDS011;32536;47.128;8.746;2023-04-06T13:38:26;9.13;;;5.60;;
46777;SDS011;32536;47.128;8.746;2023-04-06T13:40:53;9.18;;;4.72;;
46777;SDS011;32536;47.128;8.746;2023-04-06T13:43:20;9.00;;;5.32;;
46777;SDS011;32536;47.128;8.746;2023-04-06T13:45:50;9.13;;;6.35;;
46777;SDS011;32536;47.128;8.746;2023-04-06T13:48:20;6.75;;;3.97;;
46777;SDS011;32536;47.128;8.746;2023-04-06T13:50:47;7.88;;;5.25;;
46777;SDS011;32536;47.128;8.746;2023-04-06T13:53:15;8.00;;;4.50;;
46777;SDS011;32536;47.128;8.746;2023-04-06T13:55:42;7.47;;;4.47;;
46777;SDS011;32536;47.128;8.746;2023-04-06T13:58:09;10.55;;;5.65;;
46777;SDS011;32536;47.128;8.746;2023-04-06T14:00:36;9.60;;;5.85;;
46777;SDS011;32536;47.128;8.746;2023-04-06T14:03:03;8.00;;;4.88;;
46777;SDS011;32536;47.128;8.746;2023-04-06T14:05:32;8.60;;;4.47;;
46777;SDS011;32536;47.128;8.746;2023-04-06T14:07:59;8.32;;;5.53;;
46777;SDS011;32536;47.128;8.746;2023-04-06T14:10:26;7.65;;;4.68;;
46777;SDS011;32536;47.128;8.746;2023-04-06T14:12:53;8.25;;;4.45;;
46777;SDS011;32536;47.128;8.746;2023-04-06T14:15:20;6.05;;;3.53;;
46777;SDS011;32536;47.128;8.746;2023-04-06T14:17:47;7.05;;;4.68;;
46777;SDS011;32536;47.128;8.746;2023-04-06T14:20:14;8.02;;;4.60;;
46777;SDS011;32536;47.128;8.746;2023-04-06T14:22:41;8.48;;;5.28;;
46777;SDS011;32536;47.128;8.746;2023-04-06T14:25:08;8.40;;;4.72;;
46777;SDS011;32536;47.128;8.746;2023-04-06T14:27:38;5.50;;;2.60;;
46777;SDS011;32536;47.128;8.746;2023-04-06T14:30:05;6.53;;;3.78;;
46777;SDS011;32536;47.128;8.746;2023-04-06T14:32:32;7.00;;;4.00;;
46777;SDS011;32536;47.128;8.746;2023-04-06T14:34:59;6.93;;;4.25;;
46777;SDS011;32536;47.128;8.746;2023-04-06T14:37:26;7.47;;;4.43;;
46777;SDS011;32536;47.128;8.746;2023-04-06T14:39:52;6.95;;;4.30;;
46777;SDS011;32536;47.128;8.746;2023-04-06T14:42:19;6.20;;;3.63;;
46777;SDS011;32536;47.128;8.746;2023-04-06T14:44:46;6.38;;;3.78;;
46777;SDS011;32536;47.128;8.746;2023-04-06T14:47:14;5.65;;;3.05;;
46777;SDS011;32536;47.128;8.746;2023-04-06T14:49:46;7.32;;;3.70;;
46777;SDS011;32536;47.128;8.746;2023-04-06T14:52:15;5.65;;;3.78;;
46777;SDS011;32536;47.128;8.746;2023-04-06T14:54:42;6.15;;;3.40;;
46777;SDS011;32536;47.128;8.746;2023-04-06T14:57:09;5.70;;;3.05;;
46777;SDS011;32536;47.128;8.746;2023-04-06T14:59:36;5.53;;;2.42;;
46777;SDS011;32536;47.128;8.746;2023-04-06T15:02:03;5.25;;;2.90;;
46777;SDS011;32536;47.128;8.746;2023-04-06T15:04:30;4.75;;;2.83;;
46777;SDS011;32536;47.128;8.746;2023-04-06T15:07:01;6.10;;;3.80;;
46777;SDS011;32536;47.128;8.746;2023-04-06T15:09:28;7.95;;;4.28;;
46777;SDS011;32536;47.128;8.746;2023-04-06T15:11:55;5.95;;;3.50;;
46777;SDS011;32536;47.128;8.746;2023-04-06T15:14:22;7.55;;;3.78;;
46777;SDS011;32536;47.128;8.746;2023-04-06T15:16:49;5.90;;;3.72;;
46777;SDS011;32536;47.128;8.746;2023-04-06T15:19:15;6.35;;;3.47;;